sensor_id;sensor_type;location;lat;lon;timestamp;temperature;humidity
19302;DHT22;9785;59.362;12.152;2023-09-12T00:01:30;18.30;99.90
19302;DHT22;9785;59.362;12.152;2023-09-12T00:03:59;18.30;99.90
19302;DHT22;9785;59.362;12.152;2023-09-12T00:06:28;18.40;99.90
19302;DHT22;9785;59.362;12.152;2023-09-12T00:08:56;18.30;99.90
19302;DHT22;9785;59.362;12.152;2023-09-12T00:11:24;18.30;99.90
19302;DHT22;9785;59.362;12.152;2023-09-12T00:13:53;18.40;99.90
19302;DHT22;9785;59.362;12.152;2023-09-12T00:16:22;18.30;99.90
19302;DHT22;9785;59.362;12.152;2023-09-12T00:18:51;18.30;99.90
19302;DHT22;9785;59.362;12.152;2023-09-12T00:21:20;18.30;99.90
19302;DHT22;9785;59.362;12.152;2023-09-12T00:23:48;18.30;99.90
19302;DHT22;9785;59.362;12.152;2023-09-12T00:26:16;18.30;99.90
19302;DHT22;9785;59.362;12.152;2023-09-12T00:28:45;18.30;99.90
19302;DHT22;9785;59.362;12.152;2023-09-12T00:31:13;18.40;99.90
19302;DHT22;9785;59.362;12.152;2023-09-12T00:33:42;18.40;99.90
19302;DHT22;9785;59.362;12.152;2023-09-12T00:36:12;18.30;99.90
19302;DHT22;9785;59.362;12.152;2023-09-12T00:38:40;18.40;99.90
19302;DHT22;9785;59.362;12.152;2023-09-12T00:41:09;18.30;99.90
19302;DHT22;9785;59.362;12.152;2023-09-12T00:43:37;18.40;99.90
19302;DHT22;9785;59.362;12.152;2023-09-12T00:46:05;18.30;99.90
19302;DHT22;9785;59.362;12.152;2023-09-12T00:48:34;18.30;99.90
19302;DHT22;9785;59.362;12.152;2023-09-12T00:51:05;18.30;99.90
19302;DHT22;9785;59.362;12.152;2023-09-12T00:53:35;18.30;99.90
19302;DHT22;9785;59.362;12.152;2023-09-12T00:56:04;18.30;99.90
19302;DHT22;9785;59.362;12.152;2023-09-12T00:58:32;18.40;99.90
19302;DHT22;9785;59.362;12.152;2023-09-12T01:01:02;18.40;99.90
19302;DHT22;9785;59.362;12.152;2023-09-12T01:03:32;18.40;99.90
19302;DHT22;9785;59.362;12.152;2023-09-12T01:06:01;18.40;99.90
19302;DHT22;9785;59.362;12.152;2023-09-12T01:08:31;18.30;99.90
19302;DHT22;9785;59.362;12.152;2023-09-12T01:11:01;18.40;99.90
19302;DHT22;9785;59.362;12.152;2023-09-12T01:13:30;18.50;99.90
19302;DHT22;9785;59.362;12.152;2023-09-12T01:15:58;18.40;99.90
19302;DHT22;9785;59.362;12.152;2023-09-12T01:18:27;18.30;99.90
19302;DHT22;9785;59.362;12.152;2023-09-12T01:21:15;18.30;99.90
19302;DHT22;9785;59.362;12.152;2023-09-12T01:23:59;18.40;99.90
19302;DHT22;9785;59.362;12.152;2023-09-12T01:26:42;18.40;99.90
19302;DHT22;9785;59.362;12.152;2023-09-12T01:29:18;18.40;99.90
19302;DHT22;9785;59.362;12.152;2023-09-12T01:31:49;18.40;99.90
19302;DHT22;9785;59.362;12.152;2023-09-12T01:34:18;18.50;99.90
19302;DHT22;9785;59.362;12.152;2023-09-12T01:36:47;18.30;99.90
19302;DHT22;9785;59.362;12.152;2023-09-12T01:39:15;18.30;99.90
19302;DHT22;9785;59.362;12.152;2023-09-12T01:41:46;18.30;99.90
19302;DHT22;9785;59.362;12.152;2023-09-12T01:44:18;18.40;99.90
19302;DHT22;9785;59.362;12.152;2023-09-12T01:46:47;18.30;99.90
19302;DHT22;9785;59.362;12.152;2023-09-12T01:49:18;18.30;99.90
19302;DHT22;9785;59.362;12.152;2023-09-12T01:51:47;18.30;99.90
19302;DHT22;9785;59.362;12.152;2023-09-12T01:54:16;18.40;99.90
19302;DHT22;9785;59.362;12.152;2023-09-12T01:56:45;18.40;99.90
19302;DHT22;9785;59.362;12.152;2023-09-12T01:59:13;18.40;99.90
19302;DHT22;9785;59.362;12.152;2023-09-12T02:01:43;18.30;99.90
19302;DHT22;9785;59.362;12.152;2023-09-12T02:04:12;18.30;99.90
19302;DHT22;9785;59.362;12.152;2023-09-12T02:06:40;18.30;99.90
19302;DHT22;9785;59.362;12.152;2023-09-12T02:09:08;18.30;99.90
19302;DHT22;9785;59.362;12.152;2023-09-12T02:11:37;18.30;99.90
19302;DHT22;9785;59.362;12.152;2023-09-12T02:14:05;18.30;99.90
19302;DHT22;9785;59.362;12.152;2023-09-12T02:16:36;18.30;99.90
19302;DHT22;9785;59.362;12.152;2023-09-12T02:19:11;18.30;99.90
19302;DHT22;9785;59.362;12.152;2023-09-12T02:21:39;18.30;99.90
19302;DHT22;9785;59.362;12.152;2023-09-12T02:24:09;18.20;99.90
19302;DHT22;9785;59.362;12.152;2023-09-12T02:26:37;18.20;99.90
19302;DHT22;9785;59.362;12.152;2023-09-12T02:29:05;18.20;99.90
19302;DHT22;9785;59.362;12.152;2023-09-12T02:31:34;18.20;99.90
19302;DHT22;9785;59.362;12.152;2023-09-12T02:34:02;18.30;99.90
19302;DHT22;9785;59.362;12.152;2023-09-12T02:36:32;18.30;99.90
19302;DHT22;9785;59.362;12.152;2023-09-12T02:39:01;18.20;99.90
19302;DHT22;9785;59.362;12.152;2023-09-12T02:41:30;18.20;99.90
19302;DHT22;9785;59.362;12.152;2023-09-12T02:43:58;18.20;99.90
19302;DHT22;9785;59.362;12.152;2023-09-12T02:46:26;18.30;99.90
19302;DHT22;9785;59.362;12.152;2023-09-12T02:48:55;18.20;99.90
19302;DHT22;9785;59.362;12.152;2023-09-12T02:51:24;18.20;99.90
19302;DHT22;9785;59.362;12.152;2023-09-12T02:53:54;18.30;99.90
19302;DHT22;9785;59.362;12.152;2023-09-12T02:56:23;18.20;99.90
19302;DHT22;9785;59.362;12.152;2023-09-12T02:58:51;18.30;99.90
19302;DHT22;9785;59.362;12.152;2023-09-12T03:01:20;18.30;99.90
19302;DHT22;9785;59.362;12.152;2023-09-12T03:03:50;18.20;99.90
19302;DHT22;9785;59.362;12.152;2023-09-12T03:06:19;18.10;99.90
19302;DHT22;9785;59.362;12.152;2023-09-12T03:08:48;18.00;99.90
19302;DHT22;9785;59.362;12.152;2023-09-12T03:11:18;18.00;99.90
19302;DHT22;9785;59.362;12.152;2023-09-12T03:13:46;18.00;99.90
19302;DHT22;9785;59.362;12.152;2023-09-12T03:16:15;17.90;99.90
19302;DHT22;9785;59.362;12.152;2023-09-12T03:18:43;17.90;99.90
19302;DHT22;9785;59.362;12.152;2023-09-12T03:21:12;17.90;99.90
19302;DHT22;9785;59.362;12.152;2023-09-12T03:23:41;17.80;99.90
19302;DHT22;9785;59.362;12.152;2023-09-12T03:26:09;17.90;99.90
19302;DHT22;9785;59.362;12.152;2023-09-12T03:28:39;17.90;99.90
19302;DHT22;9785;59.362;12.152;2023-09-12T03:31:10;17.80;99.90
19302;DHT22;9785;59.362;12.152;2023-09-12T03:33:40;17.90;99.90
19302;DHT22;9785;59.362;12.152;2023-09-12T03:36:09;17.90;99.90
19302;DHT22;9785;59.362;12.152;2023-09-12T03:38:37;17.90;99.90
19302;DHT22;9785;59.362;12.152;2023-09-12T03:41:07;17.90;99.90
19302;DHT22;9785;59.362;12.152;2023-09-12T03:43:36;17.80;99.90
19302;DHT22;9785;59.362;12.152;2023-09-12T03:46:06;17.80;99.90
19302;DHT22;9785;59.362;12.152;2023-09-12T03:48:34;17.80;99.90
19302;DHT22;9785;59.362;12.152;2023-09-12T03:51:03;17.80;99.90
19302;DHT22;9785;59.362;12.152;2023-09-12T03:53:32;17.80;99.90
19302;DHT22;9785;59.362;12.152;2023-09-12T03:56:00;17.70;99.90
19302;DHT22;9785;59.362;12.152;2023-09-12T03:58:28;17.70;99.90
19302;DHT22;9785;59.362;12.152;2023-09-12T04:00:57;17.60;99.90
19302;DHT22;9785;59.362;12.152;2023-09-12T04:03:27;17.70;99.90
19302;DHT22;9785;59.362;12.152;2023-09-12T04:05:55;17.60;99.90
19302;DHT22;9785;59.362;12.152;2023-09-12T04:08:23;17.70;99.90
19302;DHT22;9785;59.362;12.152;2023-09-12T04:10:52;17.60;99.90
19302;DHT22;9785;59.362;12.152;2023-09-12T04:13:20;17.60;99.90
19302;DHT22;9785;59.362;12.152;2023-09-12T04:15:49;17.50;99.90
19302;DHT22;9785;59.362;12.152;2023-09-12T04:18:17;17.60;99.90
19302;DHT22;9785;59.362;12.152;2023-09-12T04:20:47;17.50;99.90
19302;DHT22;9785;59.362;12.152;2023-09-12T04:23:15;17.60;99.90
19302;DHT22;9785;59.362;12.152;2023-09-12T04:25:45;17.50;99.90
19302;DHT22;9785;59.362;12.152;2023-09-12T04:28:14;17.50;99.90
19302;DHT22;9785;59.362;12.152;2023-09-12T04:30:42;17.40;99.90
19302;DHT22;9785;59.362;12.152;2023-09-12T04:33:13;17.40;99.90
19302;DHT22;9785;59.362;12.152;2023-09-12T04:35:41;17.40;99.90
19302;DHT22;9785;59.362;12.152;2023-09-12T04:38:11;17.50;99.90
19302;DHT22;9785;59.362;12.152;2023-09-12T04:40:41;17.50;99.90
19302;DHT22;9785;59.362;12.152;2023-09-12T04:43:09;17.50;99.90
19302;DHT22;9785;59.362;12.152;2023-09-12T04:45:37;17.50;99.90
19302;DHT22;9785;59.362;12.152;2023-09-12T04:48:06;17.40;99.90
19302;DHT22;9785;59.362;12.152;2023-09-12T04:50:40;17.40;99.90
19302;DHT22;9785;59.362;12.152;2023-09-12T04:53:10;17.40;99.90
19302;DHT22;9785;59.362;12.152;2023-09-12T04:55:39;17.40;99.90
19302;DHT22;9785;59.362;12.152;2023-09-12T04:58:07;17.30;99.90
19302;DHT22;9785;59.362;12.152;2023-09-12T05:00:36;17.40;99.90
19302;DHT22;9785;59.362;12.152;2023-09-12T05:03:04;17.50;99.90
19302;DHT22;9785;59.362;12.152;2023-09-12T05:05:34;17.40;99.90
19302;DHT22;9785;59.362;12.152;2023-09-12T05:08:04;17.50;99.90
19302;DHT22;9785;59.362;12.152;2023-09-12T05:10:34;17.40;99.90
19302;DHT22;9785;59.362;12.152;2023-09-12T05:13:02;17.40;99.90
19302;DHT22;9785;59.362;12.152;2023-09-12T05:15:31;17.40;99.90
19302;DHT22;9785;59.362;12.152;2023-09-12T05:17:59;17.50;99.90
19302;DHT22;9785;59.362;12.152;2023-09-12T05:20:28;17.40;99.90
19302;DHT22;9785;59.362;12.152;2023-09-12T05:22:56;17.40;99.90
19302;DHT22;9785;59.362;12.152;2023-09-12T05:25:24;17.50;99.90
19302;DHT22;9785;59.362;12.152;2023-09-12T05:27:55;17.50;99.90
19302;DHT22;9785;59.362;12.152;2023-09-12T05:30:23;17.50;99.90
19302;DHT22;9785;59.362;12.152;2023-09-12T05:32:52;17.50;99.90
19302;DHT22;9785;59.362;12.152;2023-09-12T05:35:20;17.50;99.90
19302;DHT22;9785;59.362;12.152;2023-09-12T05:37:49;17.50;99.90
19302;DHT22;9785;59.362;12.152;2023-09-12T05:40:18;17.50;99.90
19302;DHT22;9785;59.362;12.152;2023-09-12T05:42:46;17.60;99.90
19302;DHT22;9785;59.362;12.152;2023-09-12T05:45:16;17.50;99.90
19302;DHT22;9785;59.362;12.152;2023-09-12T05:47:44;17.60;99.90
19302;DHT22;9785;59.362;12.152;2023-09-12T05:50:13;17.60;99.90
19302;DHT22;9785;59.362;12.152;2023-09-12T05:52:41;17.50;99.90
19302;DHT22;9785;59.362;12.152;2023-09-12T05:55:10;17.60;99.90
19302;DHT22;9785;59.362;12.152;2023-09-12T05:57:38;17.60;99.90
19302;DHT22;9785;59.362;12.152;2023-09-12T06:00:07;17.60;99.90
19302;DHT22;9785;59.362;12.152;2023-09-12T06:02:39;17.60;99.90
19302;DHT22;9785;59.362;12.152;2023-09-12T06:05:09;17.60;99.90
19302;DHT22;9785;59.362;12.152;2023-09-12T06:07:37;17.70;99.90
19302;DHT22;9785;59.362;12.152;2023-09-12T06:10:08;17.60;99.90
19302;DHT22;9785;59.362;12.152;2023-09-12T06:12:37;17.60;99.90
19302;DHT22;9785;59.362;12.152;2023-09-12T06:15:06;17.70;99.90
19302;DHT22;9785;59.362;12.152;2023-09-12T06:17:34;17.70;99.90
19302;DHT22;9785;59.362;12.152;2023-09-12T06:20:06;17.60;99.90
19302;DHT22;9785;59.362;12.152;2023-09-12T06:22:34;17.80;99.90
19302;DHT22;9785;59.362;12.152;2023-09-12T06:25:03;17.80;99.90
19302;DHT22;9785;59.362;12.152;2023-09-12T06:27:31;17.80;99.90
19302;DHT22;9785;59.362;12.152;2023-09-12T06:30:00;17.80;99.90
19302;DHT22;9785;59.362;12.152;2023-09-12T06:32:28;17.80;99.90
19302;DHT22;9785;59.362;12.152;2023-09-12T06:34:57;17.90;99.90
19302;DHT22;9785;59.362;12.152;2023-09-12T06:37:26;17.90;99.90
19302;DHT22;9785;59.362;12.152;2023-09-12T06:39:55;17.80;99.90
19302;DHT22;9785;59.362;12.152;2023-09-12T06:42:23;17.80;99.90
19302;DHT22;9785;59.362;12.152;2023-09-12T06:44:52;18.00;99.90
19302;DHT22;9785;59.362;12.152;2023-09-12T06:47:20;17.90;99.90
19302;DHT22;9785;59.362;12.152;2023-09-12T06:49:48;17.80;99.90
19302;DHT22;9785;59.362;12.152;2023-09-12T06:52:22;17.70;99.90
19302;DHT22;9785;59.362;12.152;2023-09-12T06:54:51;17.60;99.90
19302;DHT22;9785;59.362;12.152;2023-09-12T06:57:20;17.60;99.90
19302;DHT22;9785;59.362;12.152;2023-09-12T06:59:48;17.60;99.90
19302;DHT22;9785;59.362;12.152;2023-09-12T07:02:16;17.50;99.90
19302;DHT22;9785;59.362;12.152;2023-09-12T07:04:45;17.60;99.90
19302;DHT22;9785;59.362;12.152;2023-09-12T07:07:14;17.60;99.90
19302;DHT22;9785;59.362;12.152;2023-09-12T07:09:42;17.60;99.90
19302;DHT22;9785;59.362;12.152;2023-09-12T07:12:11;17.60;99.90
19302;DHT22;9785;59.362;12.152;2023-09-12T07:14:40;17.60;99.90
19302;DHT22;9785;59.362;12.152;2023-09-12T07:17:08;17.50;99.90
19302;DHT22;9785;59.362;12.152;2023-09-12T07:19:37;17.50;99.90
19302;DHT22;9785;59.362;12.152;2023-09-12T07:22:07;17.50;99.90
19302;DHT22;9785;59.362;12.152;2023-09-12T07:24:35;17.60;99.90
19302;DHT22;9785;59.362;12.152;2023-09-12T07:27:04;17.50;99.90
19302;DHT22;9785;59.362;12.152;2023-09-12T07:29:33;17.50;99.90
19302;DHT22;9785;59.362;12.152;2023-09-12T07:32:02;17.50;99.90
19302;DHT22;9785;59.362;12.152;2023-09-12T07:34:30;17.50;99.90
19302;DHT22;9785;59.362;12.152;2023-09-12T07:36:59;17.40;99.90
19302;DHT22;9785;59.362;12.152;2023-09-12T07:39:27;17.50;99.90
19302;DHT22;9785;59.362;12.152;2023-09-12T07:41:55;17.40;99.90
19302;DHT22;9785;59.362;12.152;2023-09-12T07:44:24;17.40;99.90
19302;DHT22;9785;59.362;12.152;2023-09-12T07:46:53;17.40;99.90
19302;DHT22;9785;59.362;12.152;2023-09-12T07:49:22;17.50;99.90
19302;DHT22;9785;59.362;12.152;2023-09-12T07:51:52;17.40;99.90
19302;DHT22;9785;59.362;12.152;2023-09-12T07:54:23;17.50;99.90
19302;DHT22;9785;59.362;12.152;2023-09-12T07:56:52;17.50;99.90
19302;DHT22;9785;59.362;12.152;2023-09-12T07:59:20;17.60;99.90
19302;DHT22;9785;59.362;12.152;2023-09-12T08:01:49;17.80;99.90
19302;DHT22;9785;59.362;12.152;2023-09-12T08:04:19;17.90;99.90
19302;DHT22;9785;59.362;12.152;2023-09-12T08:06:48;18.00;99.90
19302;DHT22;9785;59.362;12.152;2023-09-12T08:12:14;18.00;99.90
19302;DHT22;9785;59.362;12.152;2023-09-12T08:14:42;18.10;99.90
19302;DHT22;9785;59.362;12.152;2023-09-12T08:17:12;18.00;99.90
19302;DHT22;9785;59.362;12.152;2023-09-12T08:19:42;17.80;99.90
19302;DHT22;9785;59.362;12.152;2023-09-12T08:22:11;17.90;99.90
19302;DHT22;9785;59.362;12.152;2023-09-12T08:24:40;18.00;99.90
19302;DHT22;9785;59.362;12.152;2023-09-12T08:27:08;18.00;99.90
19302;DHT22;9785;59.362;12.152;2023-09-12T08:29:37;18.00;99.90
19302;DHT22;9785;59.362;12.152;2023-09-12T08:32:08;18.00;99.90
19302;DHT22;9785;59.362;12.152;2023-09-12T08:34:36;18.20;99.90
19302;DHT22;9785;59.362;12.152;2023-09-12T08:37:06;18.20;99.90
19302;DHT22;9785;59.362;12.152;2023-09-12T08:39:40;18.20;99.90
19302;DHT22;9785;59.362;12.152;2023-09-12T08:42:13;18.10;99.90
19302;DHT22;9785;59.362;12.152;2023-09-12T08:44:42;18.00;99.90
19302;DHT22;9785;59.362;12.152;2023-09-12T08:47:11;18.00;99.90
19302;DHT22;9785;59.362;12.152;2023-09-12T08:49:40;17.90;99.90
19302;DHT22;9785;59.362;12.152;2023-09-12T08:52:11;18.10;99.90
19302;DHT22;9785;59.362;12.152;2023-09-12T08:54:39;18.20;99.90
19302;DHT22;9785;59.362;12.152;2023-09-12T08:57:09;18.30;99.90
19302;DHT22;9785;59.362;12.152;2023-09-12T08:59:39;18.50;99.90
19302;DHT22;9785;59.362;12.152;2023-09-12T09:02:09;18.80;99.90
19302;DHT22;9785;59.362;12.152;2023-09-12T09:04:40;19.20;99.90
19302;DHT22;9785;59.362;12.152;2023-09-12T09:07:11;19.00;99.90
19302;DHT22;9785;59.362;12.152;2023-09-12T09:09:41;18.90;99.90
19302;DHT22;9785;59.362;12.152;2023-09-12T09:12:10;18.70;99.90
19302;DHT22;9785;59.362;12.152;2023-09-12T09:14:39;18.50;99.90
19302;DHT22;9785;59.362;12.152;2023-09-12T09:17:08;18.60;99.90
19302;DHT22;9785;59.362;12.152;2023-09-12T09:19:55;18.50;99.90
19302;DHT22;9785;59.362;12.152;2023-09-12T09:22:24;18.50;99.90
19302;DHT22;9785;59.362;12.152;2023-09-12T09:25:10;18.30;99.90
19302;DHT22;9785;59.362;12.152;2023-09-12T09:27:39;18.20;99.90
19302;DHT22;9785;59.362;12.152;2023-09-12T09:30:08;18.20;99.90
19302;DHT22;9785;59.362;12.152;2023-09-12T09:32:37;18.30;99.90
19302;DHT22;9785;59.362;12.152;2023-09-12T09:35:07;18.20;99.90
19302;DHT22;9785;59.362;12.152;2023-09-12T09:37:37;18.00;99.90
19302;DHT22;9785;59.362;12.152;2023-09-12T09:40:06;17.90;99.90
19302;DHT22;9785;59.362;12.152;2023-09-12T09:42:35;18.00;99.90
19302;DHT22;9785;59.362;12.152;2023-09-12T09:45:04;18.00;99.90
19302;DHT22;9785;59.362;12.152;2023-09-12T09:47:33;18.00;99.90
19302;DHT22;9785;59.362;12.152;2023-09-12T09:50:02;18.10;99.90
19302;DHT22;9785;59.362;12.152;2023-09-12T09:52:30;18.10;99.90
19302;DHT22;9785;59.362;12.152;2023-09-12T09:55:00;18.20;99.90
19302;DHT22;9785;59.362;12.152;2023-09-12T09:57:28;18.30;99.90
19302;DHT22;9785;59.362;12.152;2023-09-12T09:59:56;18.60;99.90
19302;DHT22;9785;59.362;12.152;2023-09-12T10:02:26;18.80;99.90
19302;DHT22;9785;59.362;12.152;2023-09-12T10:04:56;19.10;99.90
19302;DHT22;9785;59.362;12.152;2023-09-12T10:07:28;19.40;99.90
19302;DHT22;9785;59.362;12.152;2023-09-12T10:10:02;19.60;99.90
19302;DHT22;9785;59.362;12.152;2023-09-12T10:12:31;19.60;99.90
19302;DHT22;9785;59.362;12.152;2023-09-12T10:15:04;20.00;99.90
19302;DHT22;9785;59.362;12.152;2023-09-12T10:17:39;20.10;99.90
19302;DHT22;9785;59.362;12.152;2023-09-12T10:20:16;20.20;99.90
19302;DHT22;9785;59.362;12.152;2023-09-12T10:22:52;20.10;99.90
19302;DHT22;9785;59.362;12.152;2023-09-12T10:25:25;19.70;99.90
19302;DHT22;9785;59.362;12.152;2023-09-12T10:27:55;19.60;99.90
19302;DHT22;9785;59.362;12.152;2023-09-12T10:30:25;19.80;99.90
19302;DHT22;9785;59.362;12.152;2023-09-12T10:32:54;19.70;99.90
19302;DHT22;9785;59.362;12.152;2023-09-12T10:35:22;19.60;99.90
19302;DHT22;9785;59.362;12.152;2023-09-12T10:37:51;19.80;99.90
19302;DHT22;9785;59.362;12.152;2023-09-12T10:40:21;20.10;99.90
19302;DHT22;9785;59.362;12.152;2023-09-12T10:42:51;20.30;99.90
19302;DHT22;9785;59.362;12.152;2023-09-12T10:45:20;20.10;99.90
19302;DHT22;9785;59.362;12.152;2023-09-12T10:47:49;20.00;99.90
19302;DHT22;9785;59.362;12.152;2023-09-12T10:50:19;19.80;99.90
19302;DHT22;9785;59.362;12.152;2023-09-12T10:52:48;19.50;99.90
19302;DHT22;9785;59.362;12.152;2023-09-12T10:55:17;19.70;99.90
19302;DHT22;9785;59.362;12.152;2023-09-12T10:58:04;19.80;99.90
19302;DHT22;9785;59.362;12.152;2023-09-12T11:00:33;20.40;99.90
19302;DHT22;9785;59.362;12.152;2023-09-12T11:03:35;20.30;99.90
19302;DHT22;9785;59.362;12.152;2023-09-12T11:06:05;20.50;99.90
19302;DHT22;9785;59.362;12.152;2023-09-12T11:09:15;20.50;99.90
19302;DHT22;9785;59.362;12.152;2023-09-12T11:11:46;21.30;99.90
19302;DHT22;9785;59.362;12.152;2023-09-12T11:14:16;21.50;99.90
19302;DHT22;9785;59.362;12.152;2023-09-12T11:17:19;21.70;99.90
19302;DHT22;9785;59.362;12.152;2023-09-12T11:19:49;21.80;99.90
19302;DHT22;9785;59.362;12.152;2023-09-12T11:22:23;21.90;99.90
19302;DHT22;9785;59.362;12.152;2023-09-12T11:24:52;22.00;99.90
19302;DHT22;9785;59.362;12.152;2023-09-12T11:27:24;21.80;99.90
19302;DHT22;9785;59.362;12.152;2023-09-12T11:30:03;21.70;99.90
19302;DHT22;9785;59.362;12.152;2023-09-12T11:32:34;21.10;99.90
19302;DHT22;9785;59.362;12.152;2023-09-12T11:35:05;21.00;99.90
19302;DHT22;9785;59.362;12.152;2023-09-12T11:37:34;20.90;99.90
19302;DHT22;9785;59.362;12.152;2023-09-12T11:40:17;21.20;99.90
19302;DHT22;9785;59.362;12.152;2023-09-12T11:42:45;21.80;99.90
19302;DHT22;9785;59.362;12.152;2023-09-12T11:45:18;21.70;99.90
19302;DHT22;9785;59.362;12.152;2023-09-12T11:47:47;22.00;99.90
19302;DHT22;9785;59.362;12.152;2023-09-12T11:50:30;22.30;99.90
19302;DHT22;9785;59.362;12.152;2023-09-12T11:53:00;22.30;99.90
19302;DHT22;9785;59.362;12.152;2023-09-12T11:55:31;21.90;99.90
19302;DHT22;9785;59.362;12.152;2023-09-12T11:58:00;21.50;99.90
19302;DHT22;9785;59.362;12.152;2023-09-12T12:00:32;21.10;99.90
19302;DHT22;9785;59.362;12.152;2023-09-12T12:03:01;21.10;99.90
19302;DHT22;9785;59.362;12.152;2023-09-12T12:05:30;20.90;99.90
19302;DHT22;9785;59.362;12.152;2023-09-12T12:07:58;21.40;99.90
19302;DHT22;9785;59.362;12.152;2023-09-12T12:10:49;22.10;99.90
19302;DHT22;9785;59.362;12.152;2023-09-12T12:13:18;22.60;99.90
19302;DHT22;9785;59.362;12.152;2023-09-12T12:15:48;22.80;99.90
19302;DHT22;9785;59.362;12.152;2023-09-12T12:18:17;23.00;99.90
19302;DHT22;9785;59.362;12.152;2023-09-12T12:20:46;23.20;99.90
19302;DHT22;9785;59.362;12.152;2023-09-12T12:23:15;23.40;99.90
19302;DHT22;9785;59.362;12.152;2023-09-12T12:25:43;23.60;99.90
19302;DHT22;9785;59.362;12.152;2023-09-12T12:28:11;23.40;99.90
19302;DHT22;9785;59.362;12.152;2023-09-12T12:30:40;23.20;99.90
19302;DHT22;9785;59.362;12.152;2023-09-12T12:33:10;22.80;99.90
19302;DHT22;9785;59.362;12.152;2023-09-12T12:36:02;22.70;99.90
19302;DHT22;9785;59.362;12.152;2023-09-12T12:38:33;22.70;99.90
19302;DHT22;9785;59.362;12.152;2023-09-12T12:41:05;23.10;99.90
19302;DHT22;9785;59.362;12.152;2023-09-12T12:43:34;23.10;99.90
19302;DHT22;9785;59.362;12.152;2023-09-12T12:46:02;22.90;99.90
19302;DHT22;9785;59.362;12.152;2023-09-12T12:48:34;22.30;99.90
19302;DHT22;9785;59.362;12.152;2023-09-12T12:51:16;22.10;99.90
19302;DHT22;9785;59.362;12.152;2023-09-12T12:53:46;22.20;99.90
19302;DHT22;9785;59.362;12.152;2023-09-12T12:56:21;22.80;99.90
19302;DHT22;9785;59.362;12.152;2023-09-12T12:58:51;23.30;99.90
19302;DHT22;9785;59.362;12.152;2023-09-12T13:01:21;23.30;99.90
19302;DHT22;9785;59.362;12.152;2023-09-12T13:03:51;23.10;99.90
19302;DHT22;9785;59.362;12.152;2023-09-12T13:06:22;22.80;99.90
19302;DHT22;9785;59.362;12.152;2023-09-12T13:08:51;22.50;99.90
19302;DHT22;9785;59.362;12.152;2023-09-12T13:11:22;22.40;99.90
19302;DHT22;9785;59.362;12.152;2023-09-12T13:13:51;22.60;99.90
19302;DHT22;9785;59.362;12.152;2023-09-12T13:16:20;23.90;99.90
19302;DHT22;9785;59.362;12.152;2023-09-12T13:18:49;25.20;99.90
19302;DHT22;9785;59.362;12.152;2023-09-12T13:21:18;26.40;99.90
19302;DHT22;9785;59.362;12.152;2023-09-12T13:23:46;26.70;99.90
19302;DHT22;9785;59.362;12.152;2023-09-12T13:26:16;27.00;99.90
19302;DHT22;9785;59.362;12.152;2023-09-12T13:28:45;27.60;99.90
19302;DHT22;9785;59.362;12.152;2023-09-12T13:31:13;27.40;99.90
19302;DHT22;9785;59.362;12.152;2023-09-12T13:33:41;26.80;99.90
19302;DHT22;9785;59.362;12.152;2023-09-12T13:36:11;26.20;99.90
19302;DHT22;9785;59.362;12.152;2023-09-12T13:38:40;26.40;99.90
19302;DHT22;9785;59.362;12.152;2023-09-12T13:41:08;26.30;99.90
19302;DHT22;9785;59.362;12.152;2023-09-12T13:43:37;26.70;99.90
19302;DHT22;9785;59.362;12.152;2023-09-12T13:46:05;27.00;99.90
19302;DHT22;9785;59.362;12.152;2023-09-12T13:48:36;26.70;99.90
19302;DHT22;9785;59.362;12.152;2023-09-12T13:51:05;26.40;99.90
19302;DHT22;9785;59.362;12.152;2023-09-12T13:53:35;26.00;99.90
19302;DHT22;9785;59.362;12.152;2023-09-12T13:56:03;25.60;99.90
19302;DHT22;9785;59.362;12.152;2023-09-12T13:58:33;25.60;99.90
19302;DHT22;9785;59.362;12.152;2023-09-12T14:01:11;25.20;99.90
19302;DHT22;9785;59.362;12.152;2023-09-12T14:03:54;24.90;99.90
19302;DHT22;9785;59.362;12.152;2023-09-12T14:06:23;24.80;99.90
19302;DHT22;9785;59.362;12.152;2023-09-12T14:08:53;24.70;99.90
19302;DHT22;9785;59.362;12.152;2023-09-12T14:11:23;24.40;99.90
19302;DHT22;9785;59.362;12.152;2023-09-12T14:14:00;24.50;99.90
19302;DHT22;9785;59.362;12.152;2023-09-12T14:16:40;24.00;99.90
19302;DHT22;9785;59.362;12.152;2023-09-12T14:19:14;23.80;99.90
19302;DHT22;9785;59.362;12.152;2023-09-12T14:21:43;24.00;99.90
19302;DHT22;9785;59.362;12.152;2023-09-12T14:24:15;23.20;99.90
19302;DHT22;9785;59.362;12.152;2023-09-12T14:26:47;23.20;99.90
19302;DHT22;9785;59.362;12.152;2023-09-12T14:29:18;23.30;99.90
19302;DHT22;9785;59.362;12.152;2023-09-12T14:31:48;23.50;99.90
19302;DHT22;9785;59.362;12.152;2023-09-12T14:34:22;23.50;99.90
19302;DHT22;9785;59.362;12.152;2023-09-12T14:36:53;23.20;99.90
19302;DHT22;9785;59.362;12.152;2023-09-12T14:39:24;23.30;99.90
19302;DHT22;9785;59.362;12.152;2023-09-12T14:41:52;24.30;99.90
19302;DHT22;9785;59.362;12.152;2023-09-12T14:44:21;25.50;99.90
19302;DHT22;9785;59.362;12.152;2023-09-12T14:46:50;26.60;99.90
19302;DHT22;9785;59.362;12.152;2023-09-12T14:49:18;27.70;99.90
19302;DHT22;9785;59.362;12.152;2023-09-12T14:51:47;27.90;99.90
19302;DHT22;9785;59.362;12.152;2023-09-12T14:54:15;28.20;99.90
19302;DHT22;9785;59.362;12.152;2023-09-12T14:56:45;28.40;99.90
19302;DHT22;9785;59.362;12.152;2023-09-12T14:59:13;28.70;99.90
19302;DHT22;9785;59.362;12.152;2023-09-12T15:01:43;28.30;99.90
19302;DHT22;9785;59.362;12.152;2023-09-12T15:04:12;27.60;99.90
19302;DHT22;9785;59.362;12.152;2023-09-12T15:06:40;28.10;99.90
19302;DHT22;9785;59.362;12.152;2023-09-12T15:09:09;29.70;99.90
19302;DHT22;9785;59.362;12.152;2023-09-12T15:11:37;30.30;99.90
19302;DHT22;9785;59.362;12.152;2023-09-12T15:14:07;29.80;99.90
19302;DHT22;9785;59.362;12.152;2023-09-12T15:16:36;29.70;99.90
19302;DHT22;9785;59.362;12.152;2023-09-12T15:19:04;29.30;99.90
19302;DHT22;9785;59.362;12.152;2023-09-12T15:21:32;29.30;99.90
19302;DHT22;9785;59.362;12.152;2023-09-12T15:24:01;28.70;99.90
19302;DHT22;9785;59.362;12.152;2023-09-12T15:26:30;28.80;99.90
19302;DHT22;9785;59.362;12.152;2023-09-12T15:28:59;29.40;99.90
19302;DHT22;9785;59.362;12.152;2023-09-12T15:31:32;29.40;99.90
19302;DHT22;9785;59.362;12.152;2023-09-12T15:34:00;30.00;99.90
19302;DHT22;9785;59.362;12.152;2023-09-12T15:36:29;30.10;99.90
19302;DHT22;9785;59.362;12.152;2023-09-12T15:38:57;30.00;99.90
19302;DHT22;9785;59.362;12.152;2023-09-12T15:41:26;29.60;99.90
19302;DHT22;9785;59.362;12.152;2023-09-12T15:43:54;28.20;99.90
19302;DHT22;9785;59.362;12.152;2023-09-12T15:46:43;25.80;99.90
19302;DHT22;9785;59.362;12.152;2023-09-12T15:49:11;23.60;99.90
19302;DHT22;9785;59.362;12.152;2023-09-12T15:51:39;22.30;99.90